Terminal Aerodrome Forecast
Issued by NWS Mt. Holly, NJ

Home | Current Version | Previous Version | Text Only | Print | Product List | Glossary On
Versions: 1 2 3 4 5 6 7 8 9 10 11 12 13 14 15 16 17 18 19 20 21 22 23 24 25 26 27 28 29 30 31 32 33 34 35 36
942
FTAK31 PANC 301738
TAFABE
TAF
PABE 301738Z 3018/3118 11010KT P6SM OVC005
      TEMPO 3018/3021 VRB05KT SCT005 BKN050
     FM302100 09014KT P6SM VCSH SCT080 BKN150
     FM310000 16014G25KT P6SM SCT040
     FM310500 16009KT P6SM VCSH SCT030 BKN050
     FM311200 08009KT P6SM OVC050=

USA.gov is the U.S. government's official web portal to all federal, state and local government web resources and services.